Darien, WI

12:03 AM CDT on October 01, 2014 (GMT -0500)
Country Club Estates | Change Station
CLOSE
Current Station
Personal Weather Station
Location: Fontana-on-Geneva Lake, WI
Elevation: 1056 ft
Nearby Weather Stations

Elev 1056 ft 42.54 °N, 88.57 °W | Updated 5 minutes ago

Overcast
Overcast
50.0 °F
Feels Like 50.0 °F
N
0.0
Wind Variable Wind from NW

Today
High -- | Low -- °F
--% Chance of Precip.
Yesterday
High -- | Low -- °F
Precip. -- in
6:52 AM 6:36 PM
Waxing Crescent, 43% visible
Pressure 30.01 in
Visibility 10.0 miles
Clouds Overcast 1900 ft
Dew Point 48 °F
Humidity 91%
Rainfall 0.00 in
Snow Depth Not available.
UV 0 out of 12
Pollen 4.30 out of 12
Air Quality Not available.
Flu Activity Not available.
METAR KJVL 010455Z AUTO 09005KT 10SM OVC019 11/08 A3001 RMK AO2

More Conditions Fewer Conditions

Pressure 30.01 in
Visibility 10.0 miles
Clouds Overcast 1900 ft
Dew Point 48 °F
Humidity 91%
Rainfall 0.00 in
Snow Depth Not available.
UV 0 out of 12
Pollen 4.30 out of 12
Air Quality Not available.
Flu Activity Not available.
METAR KJVL 010455Z AUTO 09005KT 10SM OVC019 11/08 A3001 RMK AO2

More Conditions Fewer Conditions

10-Day Weather Forecast

Almanac

Astronomy

Oct. 01, 2014 Rise Set
Actual Time 6:52 AM CDT 6:36 PM CDT
Civil Twilight 6:23 AM CDT 7:04 PM CDT
Nautical Twilight 5:51 AM CDT 7:36 PM CDT
Astronomical Twilight 5:18 AM CDT 8:09 PM CDT
Moon 1:58 PM CDT No Moon Set
Length of Visible Light 12h 40m
Length of Day
11h 44m
Tomorrow will be 2m 51s shorter.
Waxing Crescent, 43% of the Moon is Illuminated
Today
Waxing Crescent
Oct 1
First Quarter
Oct 8
Full
Oct 15
Last Quarter
Oct 23
New

Today's Extremes

State Highs State Lows

Community

WunderPhotos

Upload Photos

1,757,850 photos uploaded!

Nearby

Snow Depth

Station Depth Elevation
No new snow has been reported.

Earthquake Activity

City Distance Mag. Time & Date
No recent earthquake activity has been reported nearby.
Minimum magnitude displayed is 2.5.

Coastal Water Temperatures

Place Temperature
No Stations Reporting

Nearby Weather Stations